Time;durP1;ratioP1;P1;durP2;ratioP2;P2;SDS_P1;SDS_P2;PMS_P1;PMS_P2;Temp;Humidity;BMP_temperature;BMP_pressure;BME280_temperature;BME280_humidity;BME280_pressure;Samples;Min_cycle;Max_cycle;Signal;HPM_P1;HPM_P2
2023/06/22 00:01:18;;;;;;;8.07;4.60;;;;;;;-145.18;100.00;46664.31;5070867;28;20035;-64
2023/06/22 00:03:44;;;;;;;6.30;3.67;;;;;;;-145.18;100.00;46658.44;5076004;28;20032;-64
2023/06/22 00:06:09;;;;;;;6.30;4.00;;;;;;;-145.18;100.00;46662.34;5060400;28;20036;-64
2023/06/22 00:08:34;;;;;;;5.93;4.30;;;;;;;-145.18;100.00;46660.41;5053472;28;20039;-64
2023/06/22 00:11:00;;;;;;;6.70;4.30;;;;;;;-145.18;100.00;46656.50;5082458;28;20513;-64
2023/06/22 00:13:25;;;;;;;6.80;4.57;;;;;;;-145.18;100.00;46670.16;5073338;28;20017;-64
2023/06/22 00:15:50;;;;;;;6.07;4.00;;;;;;;-145.18;100.00;46656.50;5082373;28;20040;-64
2023/06/22 00:18:16;;;;;;;6.67;4.07;;;;;;;-145.18;100.00;46662.34;5090912;28;20386;-64
2023/06/22 00:20:42;;;;;;;8.30;4.73;;;;;;;-145.18;100.00;46662.34;5089320;28;20082;-64
2023/06/22 00:23:08;;;;;;;7.13;4.53;;;;;;;-145.18;100.00;46672.13;5088032;28;20480;-64
2023/06/22 00:25:37;;;;;;;6.60;4.70;;;;;;;-145.18;100.00;46656.50;5091003;28;20040;-64
2023/06/22 00:28:03;;;;;;;6.83;4.80;;;;;;;-145.18;100.00;46662.34;5073686;28;20027;-64
2023/06/22 00:30:30;;;;;;;10.80;4.30;;;;;;;-145.18;100.00;46660.41;5094844;28;20132;-63
2023/06/22 00:32:55;;;;;;;7.47;4.93;;;;;;;-145.18;100.00;46664.31;5076826;28;20024;-64
2023/06/22 00:35:21;;;;;;;9.23;5.10;;;;;;;-145.18;100.00;46670.16;5075075;28;20101;-64
2023/06/22 00:37:46;;;;;;;9.60;4.90;;;;;;;-145.18;100.00;46658.44;5075051;28;20039;-64
2023/06/22 00:40:13;;;;;;;7.37;4.70;;;;;;;-145.18;100.00;46660.41;5056820;28;20048;-64
2023/06/22 00:42:39;;;;;;;9.03;5.70;;;;;;;-145.18;100.00;46664.31;5075093;28;20029;-64
2023/06/22 00:45:06;;;;;;;9.07;5.90;;;;;;;-145.18;100.00;46664.31;5057310;28;20029;-64
2023/06/22 00:47:32;;;;;;;9.67;6.10;;;;;;;-145.18;100.00;46656.50;5074918;28;20024;-64
2023/06/22 00:49:58;;;;;;;7.40;5.27;;;;;;;-145.18;100.00;46660.41;5086482;28;20040;-64
2023/06/22 00:52:28;;;;;;;11.03;6.23;;;;;;;-145.18;100.00;46662.34;5076097;28;20487;-64
2023/06/22 00:54:55;;;;;;;9.60;6.03;;;;;;;-145.18;100.00;46658.44;5074095;28;20430;-64
2023/06/22 00:57:21;;;;;;;9.00;6.13;;;;;;;-145.18;100.00;46660.41;5061752;28;20039;-64
2023/06/22 00:59:48;;;;;;;7.97;5.77;;;;;;;-145.18;100.00;46666.25;5094687;28;20021;-64
2023/06/22 01:02:14;;;;;;;7.80;6.00;;;;;;;-145.18;100.00;46658.44;5093525;28;20020;-64
2023/06/22 01:04:40;;;;;;;11.43;6.60;;;;;;;-145.18;100.00;46662.34;5094373;28;20024;-64
2023/06/22 01:07:24;;;;;;;9.23;6.20;;;;;;;-145.18;100.00;46660.41;5085967;28;20126;-64
2023/06/22 01:10:16;;;;;;;8.40;6.13;;;;;;;-145.18;100.00;46656.50;5082071;28;20107;-64
2023/06/22 01:12:52;;;;;;;11.97;6.53;;;;;;;-145.18;100.00;46656.50;5090441;28;20056;-64
2023/06/22 01:15:29;;;;;;;10.33;6.80;;;;;;;-145.18;100.00;46658.44;5093390;28;20099;-64
2023/06/22 01:17:58;;;;;;;9.57;6.60;;;;;;;-145.18;100.00;46662.34;5091842;28;20099;-64
2023/06/22 01:20:25;;;;;;;11.17;6.77;;;;;;;-145.18;100.00;46656.50;5091624;28;20392;-64
2023/06/22 01:23:18;;;;;;;10.57;6.70;;;;;;;-145.18;100.00;46656.50;5088517;28;20032;-64
2023/06/22 01:25:57;;;;;;;10.20;7.47;;;;;;;-145.18;100.00;46658.44;5087859;28;20126;-64
2023/06/22 01:28:47;;;;;;;10.00;6.60;;;;;;;-145.18;100.00;46662.34;5093375;28;20077;-64
2023/06/22 01:31:23;;;;;;;13.10;7.53;;;;;;;-145.18;100.00;46652.59;5080355;28;20016;-64
2023/06/22 01:33:52;;;;;;;11.00;7.33;;;;;;;-145.18;100.00;46654.53;5090552;28;20028;-64
2023/06/22 01:36:19;;;;;;;10.57;7.63;;;;;;;-145.18;100.00;46654.53;5093256;28;20024;-64
2023/06/22 01:38:46;;;;;;;11.83;7.87;;;;;;;-145.18;100.00;46646.72;5103830;28;20024;-64
2023/06/22 01:41:12;;;;;;;12.00;6.87;;;;;;;-145.18;100.00;46650.63;5087531;28;20036;-64
2023/06/22 01:43:38;;;;;;;10.17;6.97;;;;;;;-145.18;100.00;46648.69;5073992;28;20025;-64
2023/06/22 01:46:04;;;;;;;9.77;7.00;;;;;;;-145.18;100.00;46654.53;5073451;28;20028;-64
2023/06/22 01:48:30;;;;;;;10.13;7.07;;;;;;;-145.18;100.00;46660.41;5073675;28;20044;-64
2023/06/22 01:50:56;;;;;;;11.00;7.40;;;;;;;-145.18;100.00;46660.41;5095498;28;20029;-64
2023/06/22 01:53:23;;;;;;;10.00;6.87;;;;;;;-145.18;100.00;46652.59;5078323;28;20035;-64
2023/06/22 01:55:48;;;;;;;11.43;7.23;;;;;;;-145.18;100.00;46656.50;5087054;28;20030;-64
2023/06/22 01:58:15;;;;;;;11.73;7.40;;;;;;;-145.18;100.00;46654.53;5074335;28;20032;-64
2023/06/22 02:00:48;;;;;;;10.17;7.53;;;;;;;-145.18;100.00;46654.53;5073532;28;20032;-64
2023/06/22 02:03:19;;;;;;;12.03;7.97;;;;;;;-145.18;100.00;46650.63;5087848;28;20027;-64
2023/06/22 02:06:07;;;;;;;9.77;7.03;;;;;;;-145.18;100.00;46656.50;5087818;28;20027;-64
2023/06/22 02:08:49;;;;;;;11.83;7.93;;;;;;;-145.18;100.00;46656.50;5078518;28;20024;-64
2023/06/22 02:11:18;;;;;;;12.20;8.03;;;;;;;-145.18;100.00;46656.50;5073236;28;20012;-64
2023/06/22 02:13:45;;;;;;;10.93;7.40;;;;;;;-145.18;100.00;46650.63;5072833;28;20476;-64
2023/06/22 02:16:11;;;;;;;11.10;8.27;;;;;;;-145.18;100.00;46656.50;5073221;28;20387;-64
2023/06/22 02:18:37;;;;;;;11.57;7.90;;;;;;;-145.18;100.00;46658.44;5090701;28;20026;-64
2023/06/22 02:21:03;;;;;;;9.77;7.23;;;;;;;-145.18;100.00;46654.53;5081892;28;20024;-64
2023/06/22 02:23:28;;;;;;;16.00;9.63;;;;;;;-145.18;100.00;46652.59;5072877;28;20106;-61
2023/06/22 02:25:54;;;;;;;11.27;7.87;;;;;;;-145.18;100.00;46656.50;5072795;28;20048;-61
2023/06/22 02:28:19;;;;;;;13.07;7.47;;;;;;;-145.18;100.00;46654.53;5054342;28;20027;-61
2023/06/22 02:30:45;;;;;;;12.33;7.37;;;;;;;-145.18;100.00;46658.44;5072699;28;20100;-61
2023/06/22 02:33:10;;;;;;;11.93;7.57;;;;;;;-145.18;100.00;46656.50;5072327;28;20504;-61
2023/06/22 02:35:36;;;;;;;11.00;7.70;;;;;;;-145.18;100.00;46656.50;5072488;28;20020;-61
2023/06/22 02:38:02;;;;;;;10.40;7.83;;;;;;;-145.18;100.00;46652.59;5073145;28;20035;-61
2023/06/22 02:40:29;;;;;;;12.07;8.40;;;;;;;-145.18;100.00;46650.63;5072758;28;20379;-61
2023/06/22 02:42:55;;;;;;;11.27;7.83;;;;;;;-145.18;100.00;46652.59;5073115;28;20483;-61
2023/06/22 02:45:21;;;;;;;11.07;8.47;;;;;;;-145.18;100.00;46654.53;5072109;28;20480;-61
2023/06/22 02:47:47;;;;;;;12.03;8.10;;;;;;;-145.18;100.00;46652.59;5073091;28;20036;-61
2023/06/22 02:50:13;;;;;;;14.20;9.00;;;;;;;-145.18;100.00;46648.69;5072397;28;20095;-61
2023/06/22 02:52:39;;;;;;;13.60;8.70;;;;;;;-145.18;100.00;46644.78;5072282;28;20137;-61
2023/06/22 02:55:07;;;;;;;12.10;7.87;;;;;;;-145.18;100.00;46652.59;5072730;28;20050;-61
2023/06/22 02:57:32;;;;;;;14.83;9.70;;;;;;;-145.18;100.00;46648.69;5072965;28;20044;-61
2023/06/22 02:59:59;;;;;;;12.67;8.83;;;;;;;-145.18;100.00;46648.69;5089040;28;20049;-61
2023/06/22 03:02:26;;;;;;;14.63;8.87;;;;;;;-145.18;100.00;46646.72;5082284;28;20020;-61
2023/06/22 03:04:53;;;;;;;12.07;8.03;;;;;;;-145.18;100.00;46650.63;5072598;28;20027;-61
2023/06/22 03:07:20;;;;;;;11.33;8.23;;;;;;;-145.18;100.00;46648.69;5088013;28;20063;-61
2023/06/22 03:09:45;;;;;;;13.20;9.20;;;;;;;-145.18;100.00;46648.69;5071474;28;20028;-61
2023/06/22 03:12:11;;;;;;;13.87;9.40;;;;;;;-145.18;100.00;46654.53;5072283;28;20028;-61
2023/06/22 03:14:38;;;;;;;14.83;9.00;;;;;;;-145.18;100.00;46656.50;5072288;28;20029;-62
2023/06/22 03:17:04;;;;;;;13.77;8.97;;;;;;;-145.18;100.00;46646.72;5071872;28;20039;-61
2023/06/22 03:19:31;;;;;;;13.33;8.60;;;;;;;-145.18;100.00;46652.59;5088806;28;20032;-61
2023/06/22 03:21:57;;;;;;;15.67;9.30;;;;;;;-145.18;100.00;46646.72;5082503;28;20035;-61
2023/06/22 03:24:22;;;;;;;16.40;10.30;;;;;;;-145.18;100.00;46644.78;5074461;28;20098;-61
2023/06/22 03:26:48;;;;;;;14.10;9.20;;;;;;;-145.18;100.00;46652.59;5072337;28;20048;-61
2023/06/22 03:29:13;;;;;;;14.33;9.50;;;;;;;-145.18;100.00;46650.63;5072491;28;20027;-61
2023/06/22 03:31:39;;;;;;;15.93;10.53;;;;;;;-145.18;100.00;46642.81;5071884;28;20112;-61
2023/06/22 03:34:04;;;;;;;15.17;9.57;;;;;;;-145.18;100.00;46650.63;5054285;28;20024;-61
2023/06/22 03:36:30;;;;;;;15.43;9.90;;;;;;;-145.18;100.00;46642.81;5087725;28;20121;-61
2023/06/22 03:38:55;;;;;;;14.87;9.60;;;;;;;-145.18;100.00;46642.81;5072506;28;20021;-61
2023/06/22 03:41:20;;;;;;;14.33;9.90;;;;;;;-145.18;100.00;46648.69;5072241;28;20032;-61
2023/06/22 03:43:46;;;;;;;15.87;9.03;;;;;;;-145.18;100.00;46648.69;5072117;28;20029;-61
2023/06/22 03:46:11;;;;;;;13.47;9.73;;;;;;;-145.18;100.00;46644.78;5064174;28;20034;-61
2023/06/22 03:48:37;;;;;;;17.40;9.57;;;;;;;-145.18;100.00;46644.78;5082137;28;20476;-61
2023/06/22 03:51:03;;;;;;;11.77;8.67;;;;;;;-145.18;100.00;46642.81;5074999;28;20051;-61
2023/06/22 03:53:29;;;;;;;14.07;9.17;;;;;;;-145.18;100.00;46648.69;5082490;28;20060;-61
2023/06/22 03:55:55;;;;;;;12.30;8.67;;;;;;;-145.18;100.00;46646.72;5083648;28;20021;-61
2023/06/22 03:58:21;;;;;;;13.13;9.00;;;;;;;-145.18;100.00;46644.78;5075837;28;20369;-61
2023/06/22 04:00:48;;;;;;;15.17;9.63;;;;;;;-145.18;100.00;46644.78;5081442;28;20066;-61
2023/06/22 04:03:18;;;;;;;13.90;9.27;;;;;;;-145.18;100.00;46646.72;5071317;28;20025;-61
2023/06/22 04:05:44;;;;;;;18.73;10.60;;;;;;;-145.18;100.00;46648.69;5076046;28;20375;-61
2023/06/22 04:08:10;;;;;;;13.70;9.87;;;;;;;-145.18;100.00;46648.69;5075888;28;20478;-61
2023/06/22 04:10:35;;;;;;;14.40;9.80;;;;;;;-145.18;100.00;46652.59;5075946;28;20131;-61
2023/06/22 04:13:01;;;;;;;14.07;9.33;;;;;;;-145.18;100.00;46644.78;5058552;28;20070;-61
2023/06/22 04:15:26;;;;;;;15.90;9.53;;;;;;;-145.18;100.00;46646.72;5075955;28;20050;-62
2023/06/22 04:17:54;;;;;;;13.30;9.83;;;;;;;-145.18;100.00;46640.88;5076102;28;20032;-61
2023/06/22 04:20:19;;;;;;;13.47;8.90;;;;;;;-145.18;100.00;46644.78;5075872;28;20062;-61
2023/06/22 04:22:45;;;;;;;12.97;9.50;;;;;;;-145.18;100.00;46646.72;5076550;28;20024;-61
2023/06/22 04:25:11;;;;;;;12.87;9.53;;;;;;;-145.18;100.00;46648.69;5080931;28;20140;-61
2023/06/22 04:27:37;;;;;;;12.53;8.70;;;;;;;-145.18;100.00;46648.69;5082424;28;20044;-61
2023/06/22 04:30:03;;;;;;;15.07;8.93;;;;;;;-145.18;100.00;46650.63;5079396;28;20491;-61
2023/06/22 04:32:29;;;;;;;17.33;10.33;;;;;;;-145.18;100.00;46650.63;5079418;28;20031;-61
2023/06/22 04:34:54;;;;;;;14.57;9.20;;;;;;;-145.18;100.00;46652.59;5082106;28;20051;-61
2023/06/22 04:37:23;;;;;;;18.23;10.77;;;;;;;-145.18;100.00;46650.63;5082075;28;20036;-61
2023/06/22 04:39:49;;;;;;;12.93;9.53;;;;;;;-145.18;100.00;46650.63;5081407;28;20028;-61
2023/06/22 04:42:14;;;;;;;21.23;9.63;;;;;;;-145.18;100.00;46652.59;5081592;28;20039;-61
2023/06/22 04:44:41;;;;;;;13.60;9.47;;;;;;;-145.18;100.00;46654.53;5077391;28;20036;-61
2023/06/22 04:47:08;;;;;;;15.00;9.70;;;;;;;-145.18;100.00;46646.72;5082038;28;20040;-61
2023/06/22 04:49:37;;;;;;;13.20;8.57;;;;;;;-145.18;100.00;46648.69;5064666;28;20033;-61
2023/06/22 04:52:04;;;;;;;14.47;9.47;;;;;;;-145.18;100.00;46654.53;5080001;28;20384;-61
2023/06/22 04:54:32;;;;;;;18.13;10.57;;;;;;;-145.18;100.00;46648.69;5086434;28;20031;-61
2023/06/22 04:56:59;;;;;;;18.00;9.77;;;;;;;-145.18;100.00;46654.53;5058055;28;20549;-61
2023/06/22 04:59:28;;;;;;;14.10;9.40;;;;;;;-145.18;100.00;46652.59;5073411;28;20074;-61
2023/06/22 05:01:57;;;;;;;16.10;9.57;;;;;;;-145.18;100.00;46650.63;5073575;28;20027;-61
2023/06/22 05:04:23;;;;;;;13.40;9.00;;;;;;;-145.18;100.00;46650.63;5074058;28;20047;-61
2023/06/22 05:06:50;;;;;;;14.00;8.53;;;;;;;-145.18;100.00;46656.50;5073950;28;20484;-61
2023/06/22 05:09:16;;;;;;;13.53;8.70;;;;;;;-145.18;100.00;46650.63;5072479;28;20033;-61
2023/06/22 05:11:41;;;;;;;14.83;8.57;;;;;;;-145.18;100.00;46650.63;5074596;28;20530;-61
2023/06/22 05:14:07;;;;;;;16.77;9.10;;;;;;;-145.18;100.00;46664.31;5074133;28;20055;-61
2023/06/22 05:16:33;;;;;;;17.57;9.23;;;;;;;-145.18;100.00;46654.53;5072919;28;20082;-61
2023/06/22 05:18:58;;;;;;;16.90;10.03;;;;;;;-145.18;100.00;46652.59;5073200;28;20074;-61
2023/06/22 05:21:25;;;;;;;12.50;8.27;;;;;;;-145.18;100.00;46658.44;5090363;28;20021;-61
2023/06/22 05:23:51;;;;;;;13.00;8.43;;;;;;;-145.18;100.00;46656.50;5072860;28;20056;-61
2023/06/22 05:26:18;;;;;;;12.33;8.30;;;;;;;-145.18;100.00;46658.44;5054721;28;20507;-61
2023/06/22 05:28:46;;;;;;;12.07;8.43;;;;;;;-145.18;100.00;46658.44;5080831;28;20115;-61
2023/06/22 05:31:16;;;;;;;11.40;8.10;;;;;;;-145.18;100.00;46662.34;5084686;28;20027;-61
2023/06/22 05:33:42;;;;;;;11.13;8.00;;;;;;;-145.18;100.00;46664.31;5089649;28;20495;-61
2023/06/22 05:36:08;;;;;;;11.20;7.73;;;;;;;-145.18;100.00;46668.22;5088142;28;20399;-61
2023/06/22 05:38:34;;;;;;;11.53;7.17;;;;;;;-145.18;100.00;46668.22;5088521;28;20028;-61
2023/06/22 05:40:59;;;;;;;14.10;7.17;;;;;;;-145.18;100.00;46656.50;5073922;28;20063;-61
2023/06/22 05:43:25;;;;;;;11.20;7.23;;;;;;;-145.18;100.00;46668.22;5057622;28;20082;-61
2023/06/22 05:45:50;;;;;;;10.30;6.87;;;;;;;-145.18;100.00;46670.16;5074469;28;20511;-61
2023/06/22 05:48:15;;;;;;;9.67;6.73;;;;;;;-145.18;100.00;46674.06;5075380;28;20054;-61
2023/06/22 05:50:42;;;;;;;12.07;7.03;;;;;;;-145.18;100.00;46670.16;5080266;28;20077;-61
2023/06/22 05:53:07;;;;;;;11.37;6.17;;;;;;;-145.18;100.00;46677.97;5083233;28;20031;-61
2023/06/22 05:55:32;;;;;;;11.00;6.80;;;;;;;-145.18;100.00;46676.03;5093363;28;20077;-61
2023/06/22 05:57:58;;;;;;;9.13;6.10;;;;;;;-145.18;100.00;46676.03;5070084;28;20558;-61
2023/06/22 06:00:23;;;;;;;11.13;6.50;;;;;;;-145.18;100.00;46681.88;5073481;28;20477;-61
2023/06/22 06:02:49;;;;;;;8.67;6.47;;;;;;;-145.18;100.00;46679.94;5073849;28;20039;-61
2023/06/22 06:05:15;;;;;;;9.57;6.07;;;;;;;-145.18;100.00;46681.88;5073638;28;20426;-61
2023/06/22 06:07:42;;;;;;;9.53;6.33;;;;;;;-145.18;100.00;46677.97;5073542;28;20464;-61
2023/06/22 06:10:08;;;;;;;8.90;6.57;;;;;;;-145.18;100.00;46677.97;5061252;28;20044;-61
2023/06/22 06:12:33;;;;;;;7.20;5.47;;;;;;;-145.18;100.00;46672.13;5073464;28;20028;-62
2023/06/22 06:14:59;;;;;;;9.53;6.13;;;;;;;-145.18;100.00;46662.34;5073334;28;20032;-61
2023/06/22 06:17:24;;;;;;;11.53;6.43;;;;;;;-145.18;100.00;46658.44;5072718;28;20028;-61
2023/06/22 06:19:51;;;;;;;9.30;5.80;;;;;;;-145.18;100.00;46656.50;5072652;28;20041;-61
2023/06/22 06:22:16;;;;;;;10.10;6.47;;;;;;;-145.18;100.00;46644.78;5073097;28;20122;-61
2023/06/22 06:24:41;;;;;;;9.87;6.57;;;;;;;-145.18;100.00;46646.72;5092706;28;20139;-61
2023/06/22 06:27:08;;;;;;;9.47;6.63;;;;;;;-145.18;100.00;46648.69;5078420;28;20105;-61
2023/06/22 06:29:33;;;;;;;11.50;6.93;;;;;;;-145.18;100.00;46650.63;5073215;28;20031;-61
2023/06/22 06:31:58;;;;;;;10.27;6.47;;;;;;;-145.18;100.00;46654.53;5086774;28;20031;-61
2023/06/22 06:34:24;;;;;;;9.37;6.67;;;;;;;-145.18;100.00;46652.59;5108278;28;20546;-61
2023/06/22 06:36:49;;;;;;;10.87;7.40;;;;;;;-145.18;100.00;46656.50;5078969;28;20039;-62
2023/06/22 06:39:15;;;;;;;10.57;7.33;;;;;;;-145.18;100.00;46656.50;5072326;28;20043;-61
2023/06/22 06:41:41;;;;;;;11.00;7.00;;;;;;;-145.18;100.00;46652.59;5088814;28;20137;-61
2023/06/22 06:44:06;;;;;;;9.47;7.47;;;;;;;-145.18;100.00;46648.69;5072861;28;20056;-61
2023/06/22 06:46:32;;;;;;;10.27;6.80;;;;;;;-145.18;100.00;46648.69;5054465;28;20036;-61
2023/06/22 06:48:57;;;;;;;12.93;7.70;;;;;;;-145.18;100.00;46652.59;5072731;28;20491;-61
2023/06/22 06:51:22;;;;;;;16.37;8.07;;;;;;;-145.18;100.00;46658.44;5072160;28;20492;-61
2023/06/22 06:53:48;;;;;;;11.93;8.83;;;;;;;-145.18;100.00;46656.50;5073167;28;20042;-61
2023/06/22 06:56:13;;;;;;;13.53;8.60;;;;;;;-145.18;100.00;46652.59;5054033;28;20024;-61
2023/06/22 06:58:42;;;;;;;12.53;9.10;;;;;;;-145.18;100.00;46640.88;5073667;28;20407;-61
2023/06/22 07:01:07;;;;;;;13.00;9.53;;;;;;;-145.18;100.00;46623.28;5074448;28;20031;-61
2023/06/22 07:03:33;;;;;;;13.80;9.17;;;;;;;-145.18;100.00;46636.94;5068716;28;20101;-61
2023/06/22 07:05:59;;;;;;;13.70;9.53;;;;;;;-145.18;100.00;46625.22;5084110;28;20056;-62
2023/06/22 07:08:24;;;;;;;13.67;9.53;;;;;;;-145.18;100.00;46633.06;5101205;28;20032;-61
2023/06/22 07:10:49;;;;;;;12.13;9.13;;;;;;;-145.18;100.00;46646.72;5075811;28;20024;-61
2023/06/22 07:13:15;;;;;;;13.17;10.23;;;;;;;-145.18;100.00;46617.41;5065536;28;20032;-61
2023/06/22 07:15:40;;;;;;;17.07;10.20;;;;;;;-145.18;100.00;46650.63;5070360;28;20483;-62
2023/06/22 07:18:05;;;;;;;12.67;9.60;;;;;;;-145.18;100.00;46617.41;5058090;28;20067;-61
2023/06/22 07:20:31;;;;;;;15.13;10.87;;;;;;;-145.18;100.00;46656.50;5078059;28;20035;-62
2023/06/22 07:22:58;;;;;;;14.20;10.60;;;;;;;-145.18;100.00;46652.59;5085738;28;20028;-61
2023/06/22 07:25:23;;;;;;;16.63;11.40;;;;;;;-145.18;100.00;46646.72;5078328;28;20091;-62
2023/06/22 07:28:03;;;;;;;18.80;10.60;;;;;;;-145.18;100.00;46593.97;5079010;28;20526;-61
2023/06/22 07:30:33;;;;;;;18.90;11.60;;;;;;;-145.18;100.00;46578.34;5071479;28;20438;-61
2023/06/22 07:33:02;;;;;;;17.63;12.77;;;;;;;-145.18;100.00;46584.22;5067061;28;20032;-62
2023/06/22 07:35:28;;;;;;;15.30;11.57;;;;;;;-145.18;100.00;46588.13;5078382;28;20035;-61
2023/06/22 07:37:54;;;;;;;18.43;11.60;;;;;;;-145.18;100.00;46572.50;5082299;28;20491;-61
2023/06/22 07:40:19;;;;;;;17.03;12.40;;;;;;;-145.18;100.00;46582.25;5068114;28;20464;-61
2023/06/22 07:42:44;;;;;;;18.83;12.97;;;;;;;-145.18;100.00;46611.56;5075912;28;20035;-62
2023/06/22 07:45:10;;;;;;;23.73;13.00;;;;;;;-145.18;100.00;46640.88;5061292;28;20151;-62
2023/06/22 07:47:36;;;;;;;20.87;13.07;;;;;;;-145.18;100.00;46638.91;5089127;28;20036;-61
2023/06/22 07:50:02;;;;;;;18.40;12.27;;;;;;;-145.18;100.00;46638.91;5090566;28;20111;-62
2023/06/22 07:52:28;;;;;;;19.23;13.37;;;;;;;-145.18;100.00;46636.94;5090615;28;20442;-61
2023/06/22 07:54:54;;;;;;;16.60;13.57;;;;;;;-145.18;100.00;46636.94;5082143;28;20046;-61
2023/06/22 07:57:20;;;;;;;19.10;12.87;;;;;;;-145.18;100.00;46644.78;5084562;28;20479;-61
2023/06/22 07:59:45;;;;;;;21.00;14.43;;;;;;;-145.18;100.00;46601.78;5076598;28;20447;-61
2023/06/22 08:02:11;;;;;;;18.10;13.63;;;;;;;-145.18;100.00;46590.06;5093018;28;20052;-61
2023/06/22 08:04:37;;;;;;;19.37;13.83;;;;;;;-145.18;100.00;46584.22;5075233;28;20112;-62
2023/06/22 08:07:03;;;;;;;19.60;14.50;;;;;;;-145.18;100.00;46566.63;5075676;28;20477;-62
2023/06/22 08:09:30;;;;;;;20.83;14.73;;;;;;;-145.18;100.00;46551.00;5075409;28;20094;-62
2023/06/22 08:11:56;;;;;;;24.23;14.70;;;;;;;-145.18;100.00;46545.16;5075213;28;20078;-61
2023/06/22 08:14:23;;;;;;;19.73;13.07;;;;;;;-145.18;100.00;46543.19;5075579;28;20476;-62
2023/06/22 08:16:49;;;;;;;18.27;12.60;;;;;;;-145.18;100.00;46543.19;5079304;28;20021;-61
2023/06/22 08:19:14;;;;;;;17.70;11.93;;;;;;;-145.18;100.00;46541.25;5084581;28;20036;-61
2023/06/22 08:21:40;;;;;;;14.80;11.70;;;;;;;-145.18;100.00;46551.00;5056622;28;20392;-62
2023/06/22 08:24:07;;;;;;;16.27;12.47;;;;;;;-145.18;100.00;46545.16;5075631;28;20095;-61
2023/06/22 08:26:35;;;;;;;16.93;11.53;;;;;;;-145.18;100.00;46541.25;5075337;28;20043;-62
2023/06/22 08:29:01;;;;;;;14.50;11.30;;;;;;;-145.18;100.00;46541.25;5075176;28;20099;-61
2023/06/22 08:31:27;;;;;;;15.17;11.07;;;;;;;-145.18;100.00;46535.38;5074607;28;20017;-62
2023/06/22 08:33:52;;;;;;;13.37;10.00;;;;;;;-145.18;100.00;46531.47;5085864;28;20482;-61
2023/06/22 08:36:18;;;;;;;15.43;11.07;;;;;;;-145.18;100.00;46539.28;5074745;28;20032;-61
2023/06/22 08:38:44;;;;;;;15.93;11.20;;;;;;;-145.18;100.00;46537.34;5074754;28;20039;-61
2023/06/22 08:41:09;;;;;;;18.10;11.73;;;;;;;-145.18;100.00;46539.28;5074855;28;20024;-61
2023/06/22 08:43:35;;;;;;;14.83;11.47;;;;;;;-145.18;100.00;46539.28;5085682;28;20443;-62
2023/06/22 08:46:02;;;;;;;17.90;11.43;;;;;;;-145.18;100.00;46541.25;5083082;28;20043;-61
2023/06/22 08:48:27;;;;;;;16.40;11.27;;;;;;;-145.18;100.00;46543.19;5076697;28;20130;-62
2023/06/22 08:50:53;;;;;;;15.37;11.60;;;;;;;-145.18;100.00;46551.00;5085061;28;20488;-61
2023/06/22 08:53:18;;;;;;;15.43;11.10;;;;;;;-145.18;100.00;46543.19;5087314;28;20028;-62
2023/06/22 08:55:45;;;;;;;14.83;11.60;;;;;;;-145.18;100.00;46545.16;5064806;28;20126;-62
2023/06/22 08:58:10;;;;;;;15.50;11.50;;;;;;;-145.18;100.00;46539.28;5071101;28;20523;-61
2023/06/22 09:00:35;;;;;;;17.47;11.00;;;;;;;-145.18;100.00;46541.25;5086158;28;20029;-62
2023/06/22 09:03:01;;;;;;;13.87;11.77;;;;;;;-145.18;100.00;46537.34;5056203;28;20028;-61
2023/06/22 09:05:27;;;;;;;15.47;12.00;;;;;;;-145.18;100.00;46541.25;5074376;28;20432;-62
2023/06/22 09:07:54;;;;;;;15.77;11.30;;;;;;;-145.18;100.00;46547.09;5073674;28;20041;-61
2023/06/22 09:10:20;;;;;;;19.30;12.38;;;;;;;-145.18;100.00;46551.00;5073672;28;20124;-62
2023/06/22 09:12:45;;;;;;;18.97;11.70;;;;;;;-145.18;100.00;46541.25;5074276;28;20111;-62
2023/06/22 09:15:11;;;;;;;15.70;11.07;;;;;;;-145.18;100.00;46545.16;5074448;28;20059;-62
2023/06/22 09:17:37;;;;;;;14.97;11.03;;;;;;;-145.18;100.00;46556.88;5084762;28;20124;-62
2023/06/22 09:20:05;;;;;;;16.23;12.53;;;;;;;-145.18;100.00;46537.34;5073937;28;20044;-61
2023/06/22 09:22:31;;;;;;;17.13;12.83;;;;;;;-145.18;100.00;46547.09;5058390;28;20116;-61
2023/06/22 09:24:57;;;;;;;16.93;12.47;;;;;;;-145.18;100.00;46543.19;5073730;28;20514;-62
2023/06/22 09:27:22;;;;;;;16.70;11.82;;;;;;;-145.18;100.00;46539.28;5074646;28;20044;-61
2023/06/22 09:29:49;;;;;;;16.58;12.77;;;;;;;-145.18;100.00;46541.25;5073883;28;20028;-62
2023/06/22 09:32:14;;;;;;;19.97;13.03;;;;;;;-145.18;100.00;46545.16;5073143;28;20032;-61
2023/06/22 09:34:40;;;;;;;18.83;11.73;;;;;;;-145.18;100.00;46558.81;5074810;28;20113;-61
2023/06/22 09:37:05;;;;;;;15.63;11.35;;;;;;;-145.18;100.00;46549.06;5075259;28;20546;-62
2023/06/22 09:39:30;;;;;;;13.43;10.70;;;;;;;-145.18;100.00;46566.63;5056831;28;20035;-62
2023/06/22 09:41:59;;;;;;;15.37;11.37;;;;;;;-145.18;100.00;46547.09;5056360;28;20033;-61
2023/06/22 09:44:24;;;;;;;21.70;12.95;;;;;;;-145.18;100.00;46554.91;5063069;28;20024;-61
2023/06/22 09:46:49;;;;;;;15.93;12.00;;;;;;;-145.18;100.00;46558.81;5074058;28;20036;-61
2023/06/22 09:49:15;;;;;;;16.40;10.80;;;;;;;-145.18;100.00;46560.78;5055090;28;20048;-62
2023/06/22 09:51:40;;;;;;;17.93;11.63;;;;;;;-145.18;100.00;46545.16;5073968;28;20032;-62
2023/06/22 09:54:05;;;;;;;15.50;11.65;;;;;;;-145.18;100.00;46564.69;5048804;28;20032;-61
2023/06/22 09:56:31;;;;;;;18.53;12.50;;;;;;;-145.18;100.00;46560.78;5055011;28;20032;-62
2023/06/22 09:58:56;;;;;;;21.37;12.10;;;;;;;-145.18;100.00;46570.53;5081385;28;20537;-61
2023/06/22 10:01:22;;;;;;;17.48;12.10;;;;;;;-145.18;100.00;46566.63;5080292;28;20055;-61
2023/06/22 10:03:48;;;;;;;23.00;12.10;;;;;;;-145.18;100.00;46576.41;5085873;28;20464;-62
2023/06/22 10:06:13;;;;;;;18.70;12.47;;;;;;;-145.18;100.00;46560.78;5086105;28;20066;-62
2023/06/22 10:08:40;;;;;;;25.85;13.02;;;;;;;-145.18;100.00;46586.16;5075453;28;20036;-62
2023/06/22 10:11:05;;;;;;;17.95;11.68;;;;;;;-145.18;100.00;46554.91;5079253;28;20028;-58
2023/06/22 10:13:31;;;;;;;17.75;11.65;;;;;;;-145.18;100.00;46554.91;5088094;28;20046;-61
2023/06/22 10:15:57;;;;;;;18.50;11.83;;;;;;;-145.18;100.00;46545.16;5090121;28;20049;-61
2023/06/22 10:18:22;;;;;;;13.77;11.13;;;;;;;-145.18;100.00;46547.09;5088852;28;20032;-62
2023/06/22 10:20:52;;;;;;;14.50;10.70;;;;;;;-145.18;100.00;46562.72;5061955;28;20041;-62
2023/06/22 10:23:18;;;;;;;14.70;10.60;;;;;;;-145.18;100.00;46552.97;5089885;28;20058;-61
2023/06/22 10:25:44;;;;;;;14.35;10.27;;;;;;;-145.18;100.00;46549.06;5082045;28;20052;-61
2023/06/22 10:28:09;;;;;;;15.90;11.32;;;;;;;-145.18;100.00;46582.25;5077899;28;20035;-61
2023/06/22 10:30:34;;;;;;;15.55;10.85;;;;;;;-145.18;100.00;46554.91;5060888;28;20033;-62
2023/06/22 10:33:00;;;;;;;17.45;11.35;;;;;;;-145.18;100.00;46566.63;5077233;28;20032;-61
2023/06/22 10:35:25;;;;;;;15.75;11.43;;;;;;;-145.18;100.00;46566.63;5071365;28;20039;-61
2023/06/22 10:37:51;;;;;;;16.38;12.73;;;;;;;-145.18;100.00;46558.81;5072589;28;20128;-61
2023/06/22 10:40:18;;;;;;;15.25;11.18;;;;;;;-145.18;100.00;46562.72;5072106;28;20059;-61
2023/06/22 10:42:44;;;;;;;19.27;11.63;;;;;;;-145.18;100.00;46547.09;5073894;28;20028;-62
2023/06/22 10:45:10;;;;;;;17.30;12.38;;;;;;;-145.18;100.00;46549.06;5076547;28;20111;-62
2023/06/22 10:47:36;;;;;;;16.42;11.82;;;;;;;-145.18;100.00;46552.97;5076206;28;20116;-61
2023/06/22 10:50:03;;;;;;;17.42;12.18;;;;;;;-145.18;100.00;46539.28;5074716;28;20016;-61
2023/06/22 10:52:28;;;;;;;15.68;9.70;;;;;;;-145.18;100.00;46552.97;5083241;28;20089;-62
2023/06/22 10:54:53;;;;;;;14.88;10.15;;;;;;;-145.18;100.00;46558.81;5087557;28;20032;-62
2023/06/22 10:57:19;;;;;;;18.33;10.20;;;;;;;-145.18;100.00;46570.53;5082372;28;20028;-62